sensor_id;sensor_type;location;lat;lon;timestamp;pressure;altitude;pressure_sealevel;temperature;humidity
31011;BME280;26395;53.412;19.598;2022-10-26T00:04:06;100484.71;;;12.39;100.00
31011;BME280;26395;53.412;19.598;2022-10-26T00:19:09;100484.98;;;12.43;100.00
31011;BME280;26395;53.412;19.598;2022-10-26T00:34:12;100482.91;;;12.43;100.00
31011;BME280;26395;53.412;19.598;2022-10-26T00:49:17;100487.58;;;12.48;100.00
31011;BME280;26395;53.412;19.598;2022-10-26T01:04:22;100490.75;;;12.61;100.00
31011;BME280;26395;53.412;19.598;2022-10-26T01:35:08;100504.77;;;12.76;100.00
31011;BME280;26395;53.412;19.598;2022-10-26T01:50:12;100496.96;;;12.73;100.00
31011;BME280;26395;53.412;19.598;2022-10-26T02:20:49;100495.70;;;12.93;100.00
31011;BME280;26395;53.412;19.598;2022-10-26T02:35:53;100502.20;;;12.98;100.00
31011;BME280;26395;53.412;19.598;2022-10-26T02:51:22;100503.67;;;12.88;100.00
31011;BME280;26395;53.412;19.598;2022-10-26T03:06:27;100509.48;;;12.77;100.00
31011;BME280;26395;53.412;19.598;2022-10-26T03:21:30;100523.81;;;12.68;100.00
31011;BME280;26395;53.412;19.598;2022-10-26T03:36:33;100538.88;;;12.43;100.00
31011;BME280;26395;53.412;19.598;2022-10-26T03:51:36;100542.91;;;12.28;100.00
31011;BME280;26395;53.412;19.598;2022-10-26T04:06:39;100554.73;;;12.22;100.00
31011;BME280;26395;53.412;19.598;2022-10-26T04:21:42;100571.81;;;12.01;100.00
31011;BME280;26395;53.412;19.598;2022-10-26T04:36:45;100577.11;;;11.98;100.00
31011;BME280;26395;53.412;19.598;2022-10-26T04:51:48;100567.47;;;12.04;100.00
31011;BME280;26395;53.412;19.598;2022-10-26T05:06:52;100578.49;;;12.16;100.00
31011;BME280;26395;53.412;19.598;2022-10-26T05:21:55;100589.46;;;12.31;100.00
31011;BME280;26395;53.412;19.598;2022-10-26T05:36:59;100607.10;;;12.20;100.00
31011;BME280;26395;53.412;19.598;2022-10-26T05:52:03;100635.48;;;12.26;100.00
31011;BME280;26395;53.412;19.598;2022-10-26T06:07:32;100650.80;;;12.23;100.00
31011;BME280;26395;53.412;19.598;2022-10-26T06:22:42;100666.79;;;12.25;100.00
31011;BME280;26395;53.412;19.598;2022-10-26T06:37:51;100663.95;;;12.27;100.00
31011;BME280;26395;53.412;19.598;2022-10-26T07:08:34;100674.64;;;12.67;100.00
31011;BME280;26395;53.412;19.598;2022-10-26T07:23:38;100683.11;;;12.78;100.00
31011;BME280;26395;53.412;19.598;2022-10-26T07:38:41;100694.66;;;12.88;100.00
31011;BME280;26395;53.412;19.598;2022-10-26T07:53:45;100711.59;;;13.10;100.00
31011;BME280;26395;53.412;19.598;2022-10-26T08:08:49;100721.15;;;13.28;100.00
31011;BME280;26395;53.412;19.598;2022-10-26T08:23:54;100734.31;;;13.46;100.00
31011;BME280;26395;53.412;19.598;2022-10-26T08:38:58;100745.19;;;13.46;100.00
31011;BME280;26395;53.412;19.598;2022-10-26T08:54:20;100750.73;;;13.49;100.00
31011;BME280;26395;53.412;19.598;2022-10-26T09:25:11;100768.85;;;14.20;100.00
31011;BME280;26395;53.412;19.598;2022-10-26T09:40:30;100783.08;;;14.37;100.00
31011;BME280;26395;53.412;19.598;2022-10-26T09:55:41;100790.36;;;14.53;100.00
31011;BME280;26395;53.412;19.598;2022-10-26T10:10:54;100797.45;;;14.34;100.00
31011;BME280;26395;53.412;19.598;2022-10-26T10:26:00;100801.00;;;14.17;100.00
31011;BME280;26395;53.412;19.598;2022-10-26T10:41:15;100805.02;;;14.14;100.00
31011;BME280;26395;53.412;19.598;2022-10-26T11:11:56;100822.19;;;14.35;100.00
31011;BME280;26395;53.412;19.598;2022-10-26T11:27:04;100824.41;;;14.36;100.00
31011;BME280;26395;53.412;19.598;2022-10-26T11:42:29;100832.04;;;14.53;100.00
31011;BME280;26395;53.412;19.598;2022-10-26T11:57:37;100834.95;;;14.62;100.00
31011;BME280;26395;53.412;19.598;2022-10-26T12:12:45;100846.11;;;14.63;100.00
31011;BME280;26395;53.412;19.598;2022-10-26T12:27:54;100845.90;;;14.54;100.00
31011;BME280;26395;53.412;19.598;2022-10-26T12:58:36;100848.80;;;14.81;100.00
31011;BME280;26395;53.412;19.598;2022-10-26T13:13:50;100858.98;;;14.52;100.00
31011;BME280;26395;53.412;19.598;2022-10-26T13:29:00;100856.38;;;14.54;100.00
31011;BME280;26395;53.412;19.598;2022-10-26T13:44:05;100854.25;;;14.72;100.00
31011;BME280;26395;53.412;19.598;2022-10-26T13:59:12;100860.75;;;14.72;100.00
31011;BME280;26395;53.412;19.598;2022-10-26T14:14:19;100873.26;;;14.64;100.00
31011;BME280;26395;53.412;19.598;2022-10-26T14:29:26;100881.14;;;14.48;100.00
31011;BME280;26395;53.412;19.598;2022-10-26T14:44:29;100896.13;;;14.40;100.00
31011;BME280;26395;53.412;19.598;2022-10-26T14:59:33;100897.52;;;14.31;100.00
31011;BME280;26395;53.412;19.598;2022-10-26T15:14:41;100899.70;;;14.23;100.00
31011;BME280;26395;53.412;19.598;2022-10-26T15:29:47;100909.61;;;14.24;100.00
31011;BME280;26395;53.412;19.598;2022-10-26T15:44:52;100911.77;;;14.23;100.00
31011;BME280;26395;53.412;19.598;2022-10-26T15:59:55;100925.60;;;14.14;100.00
31011;BME280;26395;53.412;19.598;2022-10-26T16:15:00;100920.80;;;14.02;100.00
31011;BME280;26395;53.412;19.598;2022-10-26T16:30:09;100916.98;;;13.62;100.00
31011;BME280;26395;53.412;19.598;2022-10-26T16:45:14;100928.81;;;13.38;100.00
31011;BME280;26395;53.412;19.598;2022-10-26T17:00:18;100935.62;;;13.07;100.00
31011;BME280;26395;53.412;19.598;2022-10-26T17:15:21;100954.91;;;12.95;100.00
31011;BME280;26395;53.412;19.598;2022-10-26T17:30:30;100970.02;;;12.79;100.00
31011;BME280;26395;53.412;19.598;2022-10-26T17:45:36;100985.02;;;12.38;100.00
31011;BME280;26395;53.412;19.598;2022-10-26T18:00:40;100997.79;;;12.03;100.00
31011;BME280;26395;53.412;19.598;2022-10-26T18:15:48;100995.66;;;11.77;100.00
31011;BME280;26395;53.412;19.598;2022-10-26T18:30:51;101000.64;;;11.61;100.00
31011;BME280;26395;53.412;19.598;2022-10-26T18:46:09;101005.42;;;11.29;100.00
31011;BME280;26395;53.412;19.598;2022-10-26T19:01:20;101015.70;;;11.25;100.00
31011;BME280;26395;53.412;19.598;2022-10-26T19:16:26;101037.52;;;10.83;100.00
31011;BME280;26395;53.412;19.598;2022-10-26T19:31:51;101051.92;;;10.69;100.00
31011;BME280;26395;53.412;19.598;2022-10-26T19:46:55;101076.55;;;10.56;100.00
31011;BME280;26395;53.412;19.598;2022-10-26T20:01:59;101098.77;;;10.34;100.00
31011;BME280;26395;53.412;19.598;2022-10-26T20:17:02;101119.50;;;10.20;100.00
31011;BME280;26395;53.412;19.598;2022-10-26T20:32:06;101124.85;;;10.24;100.00
31011;BME280;26395;53.412;19.598;2022-10-26T20:47:10;101118.58;;;10.28;100.00
31011;BME280;26395;53.412;19.598;2022-10-26T21:02:14;101122.86;;;10.15;100.00
31011;BME280;26395;53.412;19.598;2022-10-26T21:17:18;101128.06;;;10.25;100.00
31011;BME280;26395;53.412;19.598;2022-10-26T21:32:21;101129.86;;;10.25;100.00
31011;BME280;26395;53.412;19.598;2022-10-26T21:47:24;101132.58;;;10.28;100.00
31011;BME280;26395;53.412;19.598;2022-10-26T22:02:27;101139.75;;;10.28;100.00
31011;BME280;26395;53.412;19.598;2022-10-26T22:17:31;101132.53;;;10.27;100.00
31011;BME280;26395;53.412;19.598;2022-10-26T22:32:34;101131.40;;;10.08;100.00
31011;BME280;26395;53.412;19.598;2022-10-26T22:47:37;101129.98;;;10.08;100.00
31011;BME280;26395;53.412;19.598;2022-10-26T23:02:40;101129.52;;;10.15;100.00
31011;BME280;26395;53.412;19.598;2022-10-26T23:17:43;101142.20;;;10.13;100.00
31011;BME280;26395;53.412;19.598;2022-10-26T23:32:46;101145.12;;;10.00;100.00
31011;BME280;26395;53.412;19.598;2022-10-26T23:47:49;101152.29;;;9.87;100.00
